UTN7126 HEGN-EVRA
Flight info
| Callsign | UTN7126 |
|---|---|
| Flight time | 4h 36m |
| Altitude | 36000 |
| Route | HGD V608 NABED T55 GINDI W8 ALPID DCT RASDA M855 TOMBI UA16 AYT UQ23 OSVEL UL619 YASEN DCT IBLAX DCT ASNEL DCT KENIN DCT LENOV N133 NEGUV DCT SUTIK DCT BOKSU DCT GUNTA |
| Aircraft | B77W/H-SDE1E2E3FGHIJ2J3J4J5M1RWXY/LB1D1 |
Departure
| Time | 2026-04-28 13:19 |
|---|---|
| Airport | Hurghada International Airport (HEGN) |
Arrival
| Time | 2026-04-28 17:56 |
|---|---|
| Airport | Riga International Airport (EVRA) |
| Time | Latitude | Longitude | Altitude | Speed | Heading |
|---|---|---|---|---|---|
| 2026-04-28 13:04 | 27.17480 | 33.80747 | 63 ft | 0 kts | 75° |
| 2026-04-28 13:10 | 27.17478 | 33.80738 | 54 ft | 3 kts | 74° |
| 2026-04-28 13:11 | 27.17472 | 33.80716 | 54 ft | 3 kts | 73° |
| 2026-04-28 13:11 | 27.17467 | 33.80695 | 54 ft | 3 kts | 73° |
| 2026-04-28 13:11 | 27.17461 | 33.80674 | 54 ft | 2 kts | 76° |
| 2026-04-28 13:11 | 27.17459 | 33.80663 | 54 ft | 1 kts | 94° |
| 2026-04-28 13:12 | 27.17461 | 33.80653 | 54 ft | 1 kts | 117° |
| 2026-04-28 13:12 | 27.17465 | 33.80645 | 54 ft | 1 kts | 138° |
| 2026-04-28 13:12 | 27.17472 | 33.80639 | 54 ft | 1 kts | 150° |
| 2026-04-28 13:12 | 27.17479 | 33.80635 | 54 ft | 1 kts | 157° |
| 2026-04-28 13:13 | 27.17484 | 33.80633 | 54 ft | 0 kts | 160° |
| 2026-04-28 13:16 | 27.17422 | 33.80651 | 56 ft | 21 kts | 165° |
| 2026-04-28 13:16 | 27.17319 | 33.80680 | 55 ft | 15 kts | 167° |
| 2026-04-28 13:16 | 27.17190 | 33.80721 | 55 ft | 22 kts | 165° |
| 2026-04-28 13:16 | 27.17062 | 33.80691 | 56 ft | 20 kts | 251° |
| 2026-04-28 13:17 | 27.17013 | 33.80548 | 54 ft | 21 kts | 217° |
| 2026-04-28 13:17 | 27.16799 | 33.80583 | 48 ft | 49 kts | 166° |
| 2026-04-28 13:17 | 27.16559 | 33.80653 | 52 ft | 28 kts | 166° |
| 2026-04-28 13:17 | 27.16369 | 33.80709 | 50 ft | 28 kts | 166° |
| 2026-04-28 13:18 | 27.16191 | 33.80753 | 46 ft | 18 kts | 186° |
| 2026-04-28 13:18 | 27.16135 | 33.80642 | 47 ft | 14 kts | 276° |
| 2026-04-28 13:18 | 27.16257 | 33.80577 | 47 ft | 34 kts | 343° |
| 2026-04-28 13:18 | 27.16756 | 33.80426 | 47 ft | 126 kts | 345° |
| 2026-04-28 13:19 | 27.17924 | 33.80081 | 264 ft | 206 kts | 345° |
| 2026-04-28 13:19 | 27.19387 | 33.79659 | 1691 ft | 216 kts | 345° |
| 2026-04-28 13:19 | 27.20834 | 33.79108 | 3097 ft | 230 kts | 330° |
| 2026-04-28 13:19 | 27.22081 | 33.77897 | 3804 ft | 249 kts | 306° |
| 2026-04-28 13:20 | 27.22834 | 33.76100 | 4629 ft | 254 kts | 287° |
| 2026-04-28 13:20 | 27.23272 | 33.74183 | 5644 ft | 253 kts | 285° |
| 2026-04-28 13:20 | 27.23697 | 33.72226 | 6518 ft | 260 kts | 284° |
| 2026-04-28 13:20 | 27.24097 | 33.70266 | 7472 ft | 256 kts | 283° |
| 2026-04-28 13:21 | 27.24453 | 33.68276 | 8225 ft | 262 kts | 280° |
| 2026-04-28 13:21 | 27.24620 | 33.66178 | 8717 ft | 274 kts | 274° |
| 2026-04-28 13:21 | 27.24724 | 33.63987 | 9100 ft | 285 kts | 274° |
| 2026-04-28 13:21 | 27.24785 | 33.61743 | 9384 ft | 286 kts | 272° |
| 2026-04-28 13:22 | 27.24811 | 33.59515 | 9617 ft | 290 kts | 268° |
| 2026-04-28 13:22 | 27.24603 | 33.57290 | 10643 ft | 282 kts | 263° |
| 2026-04-28 13:22 | 27.24310 | 33.55057 | 11252 ft | 298 kts | 263° |
| 2026-04-28 13:22 | 27.23994 | 33.52644 | 11471 ft | 326 kts | 263° |
| 2026-04-28 13:23 | 27.23665 | 33.50017 | 11684 ft | 353 kts | 263° |
| 2026-04-28 13:23 | 27.23325 | 33.47215 | 12225 ft | 367 kts | 263° |
| 2026-04-28 13:23 | 27.22990 | 33.44372 | 13221 ft | 368 kts | 263° |
| 2026-04-28 13:23 | 27.22662 | 33.41518 | 14153 ft | 370 kts | 263° |
| 2026-04-28 13:24 | 27.22334 | 33.38642 | 15026 ft | 372 kts | 263° |
| 2026-04-28 13:24 | 27.22002 | 33.35732 | 15776 ft | 380 kts | 263° |
| 2026-04-28 13:24 | 27.21801 | 33.32743 | 16451 ft | 387 kts | 269° |
| 2026-04-28 13:24 | 27.21845 | 33.30687 | 16955 ft | 391 kts | 274° |
| 2026-04-28 13:25 | 27.22120 | 33.27667 | 17735 ft | 396 kts | 275° |
| 2026-04-28 13:25 | 27.22397 | 33.24589 | 18599 ft | 397 kts | 275° |
| 2026-04-28 13:25 | 27.22660 | 33.21491 | 19347 ft | 400 kts | 275° |
| 2026-04-28 13:25 | 27.22918 | 33.18366 | 20092 ft | 404 kts | 275° |
| 2026-04-28 13:26 | 27.23180 | 33.15166 | 20820 ft | 407 kts | 275° |
| 2026-04-28 13:26 | 27.23436 | 33.12022 | 21488 ft | 411 kts | 275° |
| 2026-04-28 13:26 | 27.23697 | 33.08808 | 22176 ft | 415 kts | 275° |
| 2026-04-28 13:26 | 27.23961 | 33.05564 | 22853 ft | 419 kts | 275° |
| 2026-04-28 13:27 | 27.24226 | 33.02292 | 23516 ft | 423 kts | 275° |
| 2026-04-28 13:27 | 27.24492 | 32.98990 | 24078 ft | 426 kts | 275° |
| 2026-04-28 13:27 | 27.24760 | 32.95667 | 24675 ft | 428 kts | 275° |
| 2026-04-28 13:27 | 27.25028 | 32.92336 | 25292 ft | 429 kts | 275° |
| 2026-04-28 13:28 | 27.25296 | 32.88989 | 25856 ft | 431 kts | 275° |
| 2026-04-28 13:28 | 27.25564 | 32.85618 | 26398 ft | 434 kts | 275° |
| 2026-04-28 13:28 | 27.25834 | 32.82233 | 26918 ft | 437 kts | 275° |
| 2026-04-28 13:28 | 27.26105 | 32.78820 | 27435 ft | 439 kts | 275° |
| 2026-04-28 13:29 | 27.26376 | 32.75391 | 27933 ft | 442 kts | 275° |
| 2026-04-28 13:29 | 27.26648 | 32.71944 | 28411 ft | 444 kts | 275° |
| 2026-04-28 13:29 | 27.26921 | 32.68470 | 28865 ft | 446 kts | 275° |
| 2026-04-28 13:29 | 27.27195 | 32.64980 | 29303 ft | 449 kts | 275° |
| 2026-04-28 13:30 | 27.27468 | 32.61479 | 29701 ft | 451 kts | 275° |
| 2026-04-28 13:30 | 27.27742 | 32.57962 | 30096 ft | 452 kts | 275° |
| 2026-04-28 13:30 | 27.28014 | 32.54458 | 30651 ft | 447 kts | 275° |
| 2026-04-28 13:30 | 27.28281 | 32.51006 | 31375 ft | 438 kts | 275° |
| 2026-04-28 13:31 | 27.28797 | 32.44292 | 32670 ft | 425 kts | 275° |
| 2026-04-28 13:31 | 27.29051 | 32.40994 | 33153 ft | 422 kts | 275° |
| 2026-04-28 13:31 | 27.29301 | 32.37718 | 33596 ft | 420 kts | 274° |
| 2026-04-28 13:32 | 27.29562 | 32.34465 | 34015 ft | 415 kts | 276° |
| 2026-04-28 13:32 | 27.30170 | 32.31288 | 34239 ft | 418 kts | 285° |
| 2026-04-28 13:32 | 27.31204 | 32.28221 | 34487 ft | 420 kts | 290° |
| 2026-04-28 13:32 | 27.32455 | 32.25249 | 34769 ft | 421 kts | 294° |
| 2026-04-28 13:33 | 27.34018 | 32.22454 | 35056 ft | 425 kts | 301° |
| 2026-04-28 13:33 | 27.35845 | 32.19837 | 35284 ft | 426 kts | 302° |
| 2026-04-28 13:33 | 27.37679 | 32.17220 | 35540 ft | 425 kts | 302° |
| 2026-04-28 13:33 | 27.39498 | 32.14606 | 35816 ft | 424 kts | 302° |
| 2026-04-28 13:34 | 27.43133 | 32.09333 | 35918 ft | 427 kts | 302° |
| 2026-04-28 13:34 | 27.46742 | 32.04068 | 35962 ft | 422 kts | 301° |
| 2026-04-28 13:35 | 27.50309 | 31.98845 | 35977 ft | 420 kts | 301° |
| 2026-04-28 13:35 | 27.53860 | 31.93635 | 35985 ft | 419 kts | 301° |
| 2026-04-28 13:36 | 27.57407 | 31.88425 | 35998 ft | 419 kts | 301° |
| 2026-04-28 13:36 | 27.60955 | 31.83209 | 36015 ft | 419 kts | 301° |
| 2026-04-28 13:37 | 27.64507 | 31.77979 | 36016 ft | 421 kts | 301° |
| 2026-04-28 13:37 | 27.68068 | 31.72732 | 36028 ft | 422 kts | 301° |
| 2026-04-28 13:38 | 27.71635 | 31.67470 | 36032 ft | 423 kts | 301° |
| 2026-04-28 13:38 | 27.75207 | 31.62197 | 36038 ft | 423 kts | 301° |
| 2026-04-28 13:39 | 27.78755 | 31.56951 | 36047 ft | 423 kts | 301° |
| 2026-04-28 13:39 | 27.82324 | 31.51667 | 36045 ft | 423 kts | 301° |
| 2026-04-28 13:40 | 27.85889 | 31.46382 | 36050 ft | 423 kts | 301° |
| 2026-04-28 13:40 | 27.89453 | 31.41093 | 36054 ft | 422 kts | 301° |
| 2026-04-28 13:41 | 27.93005 | 31.35815 | 36063 ft | 422 kts | 301° |
| 2026-04-28 13:41 | 27.96552 | 31.30536 | 36060 ft | 421 kts | 301° |
| 2026-04-28 13:42 | 28.00097 | 31.25255 | 36059 ft | 421 kts | 301° |
| 2026-04-28 13:42 | 28.03684 | 31.20035 | 36044 ft | 421 kts | 308° |
| 2026-04-28 13:43 | 28.06034 | 31.17967 | 36064 ft | 438 kts | 323° |
| 2026-04-28 13:43 | 28.08871 | 31.16548 | 36066 ft | 452 kts | 332° |
| 2026-04-28 13:43 | 28.11942 | 31.15592 | 36056 ft | 465 kts | 340° |
| 2026-04-28 13:43 | 28.15230 | 31.15398 | 36053 ft | 483 kts | 355° |
| 2026-04-28 13:44 | 28.21971 | 31.16285 | 36062 ft | 489 kts | 356° |
| 2026-04-28 13:44 | 28.28752 | 31.17174 | 36056 ft | 490 kts | 356° |
| 2026-04-28 13:45 | 28.35542 | 31.17963 | 36050 ft | 491 kts | 355° |
| 2026-04-28 13:45 | 28.42340 | 31.18715 | 36044 ft | 490 kts | 355° |
| 2026-04-28 13:46 | 28.49123 | 31.19466 | 36039 ft | 490 kts | 355° |
| 2026-04-28 13:46 | 28.55899 | 31.20222 | 36039 ft | 488 kts | 356° |
| 2026-04-28 13:47 | 28.62654 | 31.20978 | 36039 ft | 487 kts | 356° |
| 2026-04-28 13:47 | 28.69397 | 31.21733 | 36025 ft | 486 kts | 356° |
| 2026-04-28 13:48 | 28.76123 | 31.22522 | 36040 ft | 486 kts | 356° |
| 2026-04-28 13:48 | 28.82841 | 31.23345 | 36031 ft | 485 kts | 356° |
| 2026-04-28 13:49 | 28.89556 | 31.24165 | 36029 ft | 485 kts | 356° |
| 2026-04-28 13:49 | 28.96272 | 31.24981 | 36031 ft | 485 kts | 356° |
| 2026-04-28 13:50 | 29.02993 | 31.25796 | 36028 ft | 486 kts | 356° |
| 2026-04-28 13:50 | 29.09724 | 31.26615 | 36023 ft | 487 kts | 356° |
| 2026-04-28 13:51 | 29.16454 | 31.27434 | 36026 ft | 487 kts | 356° |
| 2026-04-28 13:51 | 29.23196 | 31.28257 | 36021 ft | 487 kts | 356° |
| 2026-04-28 13:52 | 29.29934 | 31.29081 | 36021 ft | 487 kts | 356° |
| 2026-04-28 13:52 | 29.36676 | 31.29905 | 36023 ft | 487 kts | 356° |
| 2026-04-28 13:53 | 29.43352 | 31.30106 | 36008 ft | 472 kts | 346° |
| 2026-04-28 13:53 | 29.49885 | 31.29428 | 36008 ft | 471 kts | 346° |
| 2026-04-28 13:54 | 29.56421 | 31.28787 | 36008 ft | 472 kts | 346° |
| 2026-04-28 13:54 | 29.62964 | 31.28175 | 36005 ft | 472 kts | 346° |
| 2026-04-28 13:55 | 29.69505 | 31.27574 | 36004 ft | 471 kts | 346° |
| 2026-04-28 13:55 | 29.76047 | 31.26972 | 36004 ft | 471 kts | 346° |
| 2026-04-28 13:56 | 29.82589 | 31.26367 | 35992 ft | 471 kts | 346° |
| 2026-04-28 13:56 | 29.89122 | 31.25762 | 35987 ft | 471 kts | 346° |
| 2026-04-28 13:57 | 29.95673 | 31.25154 | 35984 ft | 472 kts | 346° |
| 2026-04-28 13:57 | 30.02214 | 31.24547 | 35977 ft | 472 kts | 346° |
| 2026-04-28 13:58 | 30.08763 | 31.23938 | 35976 ft | 472 kts | 346° |
| 2026-04-28 13:58 | 30.15310 | 31.23328 | 35977 ft | 472 kts | 347° |
| 2026-04-28 13:59 | 30.21817 | 31.22722 | 35976 ft | 472 kts | 347° |
| 2026-04-28 13:59 | 30.28408 | 31.22107 | 35978 ft | 472 kts | 347° |
| 2026-04-28 14:00 | 30.34955 | 31.21495 | 35980 ft | 472 kts | 347° |
| 2026-04-28 14:00 | 30.41503 | 31.20882 | 35977 ft | 472 kts | 347° |
| 2026-04-28 14:01 | 30.48057 | 31.20268 | 35984 ft | 472 kts | 347° |
| 2026-04-28 14:01 | 30.54614 | 31.19652 | 35982 ft | 473 kts | 347° |
| 2026-04-28 14:02 | 30.61173 | 31.19035 | 35980 ft | 473 kts | 347° |
| 2026-04-28 14:02 | 30.67736 | 31.18418 | 35975 ft | 473 kts | 347° |
| 2026-04-28 14:03 | 30.74301 | 31.17800 | 35972 ft | 473 kts | 347° |
| 2026-04-28 14:03 | 30.80870 | 31.17180 | 35977 ft | 474 kts | 348° |
| 2026-04-28 14:04 | 30.86330 | 31.16664 | 35987 ft | 474 kts | 348° |
| 2026-04-28 14:04 | 30.93971 | 31.15941 | 35984 ft | 474 kts | 348° |
| 2026-04-28 14:05 | 31.00553 | 31.15307 | 36080 ft | 478 kts | 355° |
| 2026-04-28 14:05 | 31.06161 | 31.14775 | 36022 ft | 488 kts | 355° |
| 2026-04-28 14:06 | 31.12968 | 31.14137 | 36005 ft | 491 kts | 355° |
| 2026-04-28 14:06 | 31.19780 | 31.13492 | 36001 ft | 491 kts | 355° |
| 2026-04-28 14:07 | 31.26578 | 31.12845 | 35995 ft | 490 kts | 355° |
| 2026-04-28 14:07 | 31.33361 | 31.12196 | 35998 ft | 489 kts | 355° |
| 2026-04-28 14:08 | 31.40131 | 31.11549 | 36003 ft | 488 kts | 355° |
| 2026-04-28 14:08 | 31.46893 | 31.10902 | 35997 ft | 487 kts | 355° |
| 2026-04-28 14:09 | 31.53649 | 31.10255 | 35999 ft | 487 kts | 355° |
| 2026-04-28 14:09 | 31.60405 | 31.09606 | 36001 ft | 487 kts | 355° |
| 2026-04-28 14:10 | 31.67163 | 31.08957 | 35997 ft | 487 kts | 355° |
| 2026-04-28 14:10 | 31.73920 | 31.08307 | 36004 ft | 487 kts | 355° |
| 2026-04-28 14:11 | 31.80677 | 31.07655 | 36003 ft | 487 kts | 355° |
| 2026-04-28 14:11 | 31.87444 | 31.07002 | 36001 ft | 488 kts | 355° |
| 2026-04-28 14:12 | 31.94209 | 31.06348 | 36004 ft | 488 kts | 355° |
| 2026-04-28 14:12 | 32.00977 | 31.05693 | 36000 ft | 488 kts | 355° |
| 2026-04-28 14:13 | 32.07742 | 31.05047 | 36018 ft | 484 kts | 349° |
| 2026-04-28 14:13 | 32.14335 | 31.04415 | 35996 ft | 470 kts | 348° |
| 2026-04-28 14:14 | 32.20842 | 31.03772 | 36006 ft | 469 kts | 349° |
| 2026-04-28 14:14 | 32.27365 | 31.03128 | 36008 ft | 471 kts | 349° |
| 2026-04-28 14:15 | 32.33906 | 31.02488 | 36011 ft | 473 kts | 349° |
| 2026-04-28 14:15 | 32.40487 | 31.01845 | 36008 ft | 475 kts | 349° |
| 2026-04-28 14:16 | 32.47052 | 31.01204 | 36005 ft | 477 kts | 349° |
| 2026-04-28 14:16 | 32.53670 | 31.00556 | 36003 ft | 478 kts | 349° |
| 2026-04-28 14:17 | 32.60299 | 30.99907 | 35998 ft | 478 kts | 349° |
| 2026-04-28 14:17 | 32.66931 | 30.99255 | 35998 ft | 478 kts | 349° |
| 2026-04-28 14:18 | 32.73557 | 30.98604 | 35991 ft | 478 kts | 349° |
| 2026-04-28 14:18 | 32.80178 | 30.97952 | 35997 ft | 477 kts | 349° |
| 2026-04-28 14:19 | 32.86787 | 30.97300 | 35997 ft | 477 kts | 350° |
| 2026-04-28 14:19 | 32.93396 | 30.96646 | 35997 ft | 476 kts | 350° |
| 2026-04-28 14:20 | 33.00000 | 30.95992 | 35994 ft | 476 kts | 350° |
| 2026-04-28 14:20 | 33.06596 | 30.95338 | 35989 ft | 476 kts | 350° |
| 2026-04-28 14:21 | 33.13199 | 30.94746 | 35987 ft | 477 kts | 352° |
| 2026-04-28 14:21 | 33.19845 | 30.94522 | 35993 ft | 478 kts | 354° |
| 2026-04-28 14:22 | 33.26499 | 30.94359 | 35988 ft | 478 kts | 354° |
| 2026-04-28 14:22 | 33.33147 | 30.94143 | 35985 ft | 478 kts | 353° |
| 2026-04-28 14:23 | 33.39798 | 30.93895 | 35980 ft | 478 kts | 353° |
| 2026-04-28 14:23 | 33.46448 | 30.93642 | 35971 ft | 478 kts | 353° |
| 2026-04-28 14:24 | 33.53094 | 30.93391 | 35987 ft | 478 kts | 353° |
| 2026-04-28 14:24 | 33.59752 | 30.93141 | 35978 ft | 478 kts | 353° |
| 2026-04-28 14:25 | 33.66400 | 30.92891 | 35983 ft | 478 kts | 354° |
| 2026-04-28 14:25 | 33.73052 | 30.92641 | 35973 ft | 478 kts | 354° |
| 2026-04-28 14:26 | 33.79700 | 30.92390 | 35972 ft | 478 kts | 354° |
| 2026-04-28 14:26 | 33.86344 | 30.92139 | 35977 ft | 478 kts | 354° |
| 2026-04-28 14:27 | 33.92990 | 30.91888 | 35970 ft | 478 kts | 354° |
| 2026-04-28 14:27 | 33.99633 | 30.91594 | 35971 ft | 477 kts | 353° |
| 2026-04-28 14:28 | 34.06262 | 30.91210 | 35971 ft | 477 kts | 353° |
| 2026-04-28 14:28 | 34.12898 | 30.90830 | 35965 ft | 477 kts | 353° |
| 2026-04-28 14:29 | 34.19531 | 30.90464 | 35968 ft | 477 kts | 353° |
| 2026-04-28 14:29 | 34.26165 | 30.90100 | 35964 ft | 477 kts | 353° |
| 2026-04-28 14:30 | 34.32807 | 30.89763 | 35959 ft | 477 kts | 353° |
| 2026-04-28 14:30 | 34.39442 | 30.89432 | 35957 ft | 478 kts | 354° |
| 2026-04-28 14:31 | 34.46086 | 30.89096 | 35956 ft | 478 kts | 354° |
| 2026-04-28 14:31 | 34.52729 | 30.88758 | 35956 ft | 478 kts | 354° |
| 2026-04-28 14:32 | 34.59378 | 30.88419 | 35955 ft | 478 kts | 354° |
| 2026-04-28 14:32 | 34.66027 | 30.88123 | 35950 ft | 478 kts | 355° |
| 2026-04-28 14:33 | 34.72685 | 30.87928 | 35952 ft | 479 kts | 355° |
| 2026-04-28 14:33 | 34.79302 | 30.87735 | 35949 ft | 479 kts | 355° |
| 2026-04-28 14:34 | 34.89288 | 30.87420 | 35950 ft | 479 kts | 355° |
| 2026-04-28 14:35 | 34.95942 | 30.87205 | 35947 ft | 479 kts | 355° |
| 2026-04-28 14:35 | 35.02606 | 30.86990 | 35939 ft | 479 kts | 355° |
| 2026-04-28 14:36 | 35.09261 | 30.86776 | 35935 ft | 479 kts | 355° |
| 2026-04-28 14:36 | 35.15923 | 30.86561 | 35937 ft | 479 kts | 355° |
| 2026-04-28 14:37 | 35.22579 | 30.86341 | 35939 ft | 478 kts | 355° |
| 2026-04-28 14:37 | 35.29234 | 30.86113 | 35939 ft | 478 kts | 355° |
| 2026-04-28 14:38 | 35.35887 | 30.85884 | 35938 ft | 478 kts | 355° |
| 2026-04-28 14:38 | 35.42540 | 30.85657 | 35933 ft | 478 kts | 355° |
| 2026-04-28 14:39 | 35.49191 | 30.85429 | 35934 ft | 478 kts | 355° |
| 2026-04-28 14:39 | 35.55845 | 30.85201 | 35932 ft | 478 kts | 355° |
| 2026-04-28 14:40 | 35.62488 | 30.84971 | 35927 ft | 478 kts | 355° |
| 2026-04-28 14:40 | 35.69130 | 30.84593 | 35930 ft | 477 kts | 354° |
| 2026-04-28 14:41 | 35.75757 | 30.84154 | 35927 ft | 477 kts | 354° |
| 2026-04-28 14:41 | 35.82386 | 30.83734 | 35928 ft | 477 kts | 354° |
| 2026-04-28 14:42 | 35.89022 | 30.83327 | 35924 ft | 477 kts | 354° |
| 2026-04-28 14:42 | 35.95661 | 30.82920 | 35923 ft | 477 kts | 354° |
| 2026-04-28 14:43 | 36.02290 | 30.82512 | 35919 ft | 477 kts | 354° |
| 2026-04-28 14:43 | 36.08925 | 30.82188 | 35917 ft | 478 kts | 355° |
| 2026-04-28 14:44 | 36.15580 | 30.82009 | 35912 ft | 478 kts | 356° |
| 2026-04-28 14:44 | 36.22225 | 30.81822 | 35911 ft | 478 kts | 355° |
| 2026-04-28 14:45 | 36.28870 | 30.81611 | 35908 ft | 478 kts | 355° |
| 2026-04-28 14:45 | 36.34398 | 30.81432 | 35905 ft | 478 kts | 355° |
| 2026-04-28 14:46 | 36.41057 | 30.81217 | 35908 ft | 478 kts | 355° |
| 2026-04-28 14:46 | 36.47711 | 30.80990 | 35906 ft | 479 kts | 355° |
| 2026-04-28 14:47 | 36.54374 | 30.80750 | 35906 ft | 479 kts | 355° |
| 2026-04-28 14:47 | 36.61031 | 30.80510 | 35906 ft | 479 kts | 355° |
| 2026-04-28 14:48 | 36.67705 | 30.80272 | 35913 ft | 480 kts | 355° |
| 2026-04-28 14:48 | 36.74379 | 30.80035 | 35911 ft | 480 kts | 355° |
| 2026-04-28 14:49 | 36.81063 | 30.79796 | 35914 ft | 480 kts | 355° |
| 2026-04-28 14:49 | 36.87758 | 30.79556 | 35918 ft | 481 kts | 355° |
| 2026-04-28 14:50 | 36.94460 | 30.79612 | 35910 ft | 485 kts | 2° |
| 2026-04-28 14:50 | 37.01167 | 30.80605 | 35911 ft | 486 kts | 4° |
| 2026-04-28 14:51 | 37.07886 | 30.81616 | 35920 ft | 486 kts | 3° |
| 2026-04-28 14:51 | 37.14605 | 30.82589 | 35925 ft | 486 kts | 3° |
| 2026-04-28 14:52 | 37.21330 | 30.83545 | 35949 ft | 486 kts | 3° |
| 2026-04-28 14:52 | 37.28048 | 30.84499 | 35953 ft | 486 kts | 3° |
| 2026-04-28 14:53 | 37.34759 | 30.85453 | 35971 ft | 484 kts | 3° |
| 2026-04-28 14:53 | 37.41462 | 30.86411 | 35965 ft | 484 kts | 3° |
| 2026-04-28 14:54 | 37.48152 | 30.87370 | 35975 ft | 484 kts | 3° |
| 2026-04-28 14:54 | 37.54834 | 30.88328 | 35987 ft | 483 kts | 3° |
| 2026-04-28 14:55 | 37.61520 | 30.89287 | 35990 ft | 484 kts | 3° |
| 2026-04-28 14:55 | 37.68212 | 30.90250 | 35999 ft | 484 kts | 3° |
| 2026-04-28 14:56 | 37.74907 | 30.91215 | 36005 ft | 484 kts | 3° |
| 2026-04-28 14:56 | 37.81607 | 30.92184 | 36000 ft | 484 kts | 3° |
| 2026-04-28 14:57 | 37.88304 | 30.93152 | 36006 ft | 485 kts | 3° |
| 2026-04-28 14:57 | 37.95007 | 30.94123 | 36008 ft | 485 kts | 3° |
| 2026-04-28 14:58 | 38.01661 | 30.95090 | 35996 ft | 484 kts | 3° |
| 2026-04-28 14:58 | 38.08399 | 30.96071 | 36009 ft | 484 kts | 3° |
| 2026-04-28 14:59 | 38.15049 | 30.97040 | 36001 ft | 484 kts | 3° |
| 2026-04-28 14:59 | 38.21740 | 30.98017 | 36004 ft | 484 kts | 3° |
| 2026-04-28 15:00 | 38.28431 | 30.98997 | 35999 ft | 484 kts | 3° |
| 2026-04-28 15:00 | 38.35122 | 30.99977 | 35986 ft | 484 kts | 3° |
| 2026-04-28 15:01 | 38.41812 | 31.00960 | 36008 ft | 483 kts | 3° |
| 2026-04-28 15:01 | 38.48462 | 31.01041 | 36013 ft | 475 kts | 348° |
| 2026-04-28 15:02 | 38.54788 | 30.98904 | 36014 ft | 468 kts | 335° |
| 2026-04-28 15:02 | 38.60875 | 30.95878 | 36010 ft | 470 kts | 335° |
| 2026-04-28 15:03 | 38.66989 | 30.92889 | 36005 ft | 471 kts | 336° |
| 2026-04-28 15:03 | 38.73123 | 30.89925 | 36013 ft | 472 kts | 336° |
| 2026-04-28 15:04 | 38.79269 | 30.86961 | 36012 ft | 472 kts | 336° |
| 2026-04-28 15:04 | 38.85410 | 30.83994 | 36018 ft | 471 kts | 336° |
| 2026-04-28 15:05 | 38.91537 | 30.81028 | 36009 ft | 470 kts | 336° |
| 2026-04-28 15:05 | 38.97633 | 30.78069 | 36022 ft | 467 kts | 337° |
| 2026-04-28 15:06 | 39.03706 | 30.75118 | 36007 ft | 466 kts | 336° |
| 2026-04-28 15:06 | 39.09760 | 30.72168 | 36020 ft | 465 kts | 336° |
| 2026-04-28 15:07 | 39.15803 | 30.69217 | 36016 ft | 464 kts | 336° |
| 2026-04-28 15:07 | 39.21839 | 30.66266 | 36011 ft | 464 kts | 336° |
| 2026-04-28 15:08 | 39.27875 | 30.63310 | 36018 ft | 464 kts | 337° |
| 2026-04-28 15:08 | 39.33908 | 30.60348 | 36022 ft | 464 kts | 337° |
| 2026-04-28 15:09 | 39.39944 | 30.57380 | 36015 ft | 464 kts | 337° |
| 2026-04-28 15:09 | 39.45979 | 30.54407 | 36022 ft | 464 kts | 337° |
| 2026-04-28 15:10 | 39.52016 | 30.51428 | 36022 ft | 464 kts | 337° |
| 2026-04-28 15:10 | 39.57991 | 30.48267 | 36017 ft | 463 kts | 334° |
| 2026-04-28 15:11 | 39.63872 | 30.44828 | 36026 ft | 464 kts | 333° |
| 2026-04-28 15:11 | 39.69742 | 30.41368 | 36021 ft | 464 kts | 334° |
| 2026-04-28 15:12 | 39.75627 | 30.37916 | 36024 ft | 464 kts | 334° |
| 2026-04-28 15:12 | 39.81502 | 30.34479 | 36015 ft | 463 kts | 334° |
| 2026-04-28 15:13 | 39.87376 | 30.31038 | 36026 ft | 463 kts | 334° |
| 2026-04-28 15:13 | 39.93250 | 30.27591 | 36030 ft | 462 kts | 334° |
| 2026-04-28 15:14 | 39.99109 | 30.24145 | 36040 ft | 462 kts | 334° |
| 2026-04-28 15:14 | 40.04964 | 30.20695 | 36042 ft | 461 kts | 334° |
| 2026-04-28 15:15 | 40.10806 | 30.17247 | 36048 ft | 461 kts | 334° |
| 2026-04-28 15:15 | 40.16611 | 30.13812 | 36048 ft | 460 kts | 334° |
| 2026-04-28 15:16 | 40.22441 | 30.10356 | 36043 ft | 460 kts | 334° |
| 2026-04-28 15:16 | 40.28268 | 30.06897 | 36050 ft | 459 kts | 334° |
| 2026-04-28 15:17 | 40.34082 | 30.03438 | 36050 ft | 459 kts | 334° |
| 2026-04-28 15:17 | 40.39890 | 29.99976 | 36062 ft | 458 kts | 334° |
| 2026-04-28 15:18 | 40.45696 | 29.96509 | 36091 ft | 458 kts | 334° |
| 2026-04-28 15:18 | 40.51495 | 29.93040 | 36102 ft | 458 kts | 334° |
| 2026-04-28 15:19 | 40.57296 | 29.89561 | 36110 ft | 458 kts | 334° |
| 2026-04-28 15:19 | 40.63101 | 29.86075 | 36112 ft | 458 kts | 334° |
| 2026-04-28 15:20 | 40.66000 | 29.84332 | 36116 ft | 458 kts | 334° |
| 2026-04-28 15:20 | 40.71483 | 29.81030 | 36110 ft | 459 kts | 334° |
| 2026-04-28 15:21 | 40.77280 | 29.77531 | 36112 ft | 458 kts | 333° |
| 2026-04-28 15:21 | 40.83070 | 29.74030 | 36111 ft | 458 kts | 334° |
| 2026-04-28 15:22 | 40.88860 | 29.70523 | 36103 ft | 457 kts | 333° |
| 2026-04-28 15:22 | 40.94643 | 29.67014 | 36111 ft | 457 kts | 333° |
| 2026-04-28 15:23 | 41.00415 | 29.63502 | 36106 ft | 457 kts | 333° |
| 2026-04-28 15:23 | 41.06194 | 29.59980 | 36116 ft | 456 kts | 333° |
| 2026-04-28 15:24 | 41.11967 | 29.56457 | 36117 ft | 457 kts | 333° |
| 2026-04-28 15:24 | 41.17652 | 29.52708 | 36111 ft | 455 kts | 326° |
| 2026-04-28 15:25 | 41.21798 | 29.48458 | 36125 ft | 453 kts | 316° |
| 2026-04-28 15:25 | 41.26690 | 29.41257 | 36130 ft | 451 kts | 309° |
| 2026-04-28 15:26 | 41.30095 | 29.35925 | 36122 ft | 452 kts | 310° |
| 2026-04-28 15:26 | 41.34845 | 29.28537 | 36129 ft | 452 kts | 310° |
| 2026-04-28 15:27 | 41.38275 | 29.23217 | 36127 ft | 452 kts | 310° |
| 2026-04-28 15:27 | 41.42368 | 29.16862 | 36129 ft | 452 kts | 310° |
| 2026-04-28 15:28 | 41.46456 | 29.10499 | 36131 ft | 452 kts | 310° |
| 2026-04-28 15:28 | 41.50542 | 29.04127 | 36131 ft | 451 kts | 310° |
| 2026-04-28 15:29 | 41.54616 | 28.97759 | 36129 ft | 451 kts | 310° |
| 2026-04-28 15:29 | 41.58682 | 28.91390 | 36131 ft | 450 kts | 310° |
| 2026-04-28 15:30 | 41.62744 | 28.85013 | 36132 ft | 450 kts | 310° |
| 2026-04-28 15:30 | 41.66792 | 28.78644 | 36138 ft | 449 kts | 310° |
| 2026-04-28 15:31 | 41.70840 | 28.72263 | 36136 ft | 449 kts | 310° |
| 2026-04-28 15:31 | 41.74876 | 28.65885 | 36120 ft | 449 kts | 310° |
| 2026-04-28 15:32 | 41.78906 | 28.59505 | 36135 ft | 448 kts | 310° |
| 2026-04-28 15:32 | 41.82930 | 28.53120 | 36139 ft | 448 kts | 310° |
| 2026-04-28 15:33 | 41.86919 | 28.46776 | 36142 ft | 448 kts | 309° |
| 2026-04-28 15:33 | 41.90932 | 28.40380 | 36129 ft | 447 kts | 309° |
| 2026-04-28 15:34 | 41.94937 | 28.33991 | 36129 ft | 447 kts | 310° |
| 2026-04-28 15:34 | 41.99484 | 28.28299 | 36147 ft | 448 kts | 321° |
| 2026-04-28 15:35 | 42.04728 | 28.23778 | 36151 ft | 449 kts | 329° |
| 2026-04-28 15:35 | 42.12977 | 28.17821 | 36140 ft | 448 kts | 329° |
| 2026-04-28 15:36 | 42.18461 | 28.13823 | 36140 ft | 448 kts | 329° |
| 2026-04-28 15:36 | 42.23940 | 28.09797 | 36135 ft | 448 kts | 329° |
| 2026-04-28 15:37 | 42.29411 | 28.05763 | 36135 ft | 448 kts | 329° |
| 2026-04-28 15:37 | 42.34883 | 28.01717 | 36134 ft | 448 kts | 329° |
| 2026-04-28 15:38 | 42.40347 | 27.97671 | 36137 ft | 448 kts | 329° |
| 2026-04-28 15:38 | 42.45808 | 27.93619 | 36131 ft | 447 kts | 329° |
| 2026-04-28 15:39 | 42.51267 | 27.89561 | 36135 ft | 447 kts | 328° |
| 2026-04-28 15:39 | 42.56721 | 27.85498 | 36135 ft | 447 kts | 328° |
| 2026-04-28 15:40 | 42.62175 | 27.81428 | 36131 ft | 447 kts | 328° |
| 2026-04-28 15:40 | 42.67631 | 27.77347 | 36132 ft | 447 kts | 328° |
| 2026-04-28 15:41 | 42.73042 | 27.73292 | 36131 ft | 447 kts | 328° |
| 2026-04-28 15:41 | 42.78498 | 27.69196 | 36132 ft | 447 kts | 328° |
| 2026-04-28 15:42 | 42.83956 | 27.65089 | 36131 ft | 448 kts | 328° |
| 2026-04-28 15:42 | 42.89404 | 27.60982 | 36126 ft | 448 kts | 328° |
| 2026-04-28 15:43 | 42.94864 | 27.56856 | 36120 ft | 448 kts | 328° |
| 2026-04-28 15:43 | 43.00298 | 27.52742 | 36125 ft | 448 kts | 328° |
| 2026-04-28 15:44 | 43.05763 | 27.48597 | 36116 ft | 447 kts | 328° |
| 2026-04-28 15:44 | 43.11186 | 27.44475 | 36112 ft | 446 kts | 328° |
| 2026-04-28 15:45 | 43.16589 | 27.40359 | 36106 ft | 445 kts | 328° |
| 2026-04-28 15:45 | 43.22012 | 27.36221 | 36099 ft | 444 kts | 328° |
| 2026-04-28 15:46 | 43.27421 | 27.32084 | 36091 ft | 444 kts | 328° |
| 2026-04-28 15:46 | 43.32805 | 27.27957 | 36086 ft | 444 kts | 328° |
| 2026-04-28 15:47 | 43.38194 | 27.23819 | 36082 ft | 443 kts | 327° |
| 2026-04-28 15:47 | 43.43564 | 27.19686 | 36076 ft | 443 kts | 328° |
| 2026-04-28 15:48 | 43.48920 | 27.15556 | 36077 ft | 443 kts | 328° |
| 2026-04-28 15:48 | 43.54311 | 27.11390 | 36071 ft | 443 kts | 327° |
| 2026-04-28 15:49 | 43.59697 | 27.07220 | 36056 ft | 443 kts | 327° |
| 2026-04-28 15:49 | 43.65039 | 27.03075 | 36068 ft | 443 kts | 327° |
| 2026-04-28 15:50 | 43.70432 | 26.98882 | 36060 ft | 443 kts | 327° |
| 2026-04-28 15:50 | 43.75785 | 26.94711 | 36064 ft | 444 kts | 327° |
| 2026-04-28 15:51 | 43.81186 | 26.90494 | 36072 ft | 444 kts | 327° |
| 2026-04-28 15:51 | 43.86548 | 26.86299 | 36068 ft | 443 kts | 327° |
| 2026-04-28 15:52 | 43.91899 | 26.82104 | 36065 ft | 443 kts | 327° |
| 2026-04-28 15:52 | 43.97249 | 26.77900 | 36071 ft | 442 kts | 327° |
| 2026-04-28 15:53 | 43.99952 | 26.75771 | 35407 ft | 444 kts | 330° |
| 2026-04-28 15:53 | 44.02645 | 26.73650 | 35712 ft | 446 kts | 330° |
| 2026-04-28 15:53 | 44.05332 | 26.71534 | 35833 ft | 451 kts | 330° |
| 2026-04-28 15:53 | 44.08089 | 26.69359 | 35932 ft | 457 kts | 330° |
| 2026-04-28 15:54 | 44.13702 | 26.64919 | 36006 ft | 471 kts | 330° |
| 2026-04-28 15:54 | 44.19478 | 26.60339 | 36012 ft | 484 kts | 330° |
| 2026-04-28 15:55 | 44.25385 | 26.55648 | 36008 ft | 492 kts | 330° |
| 2026-04-28 15:55 | 44.31341 | 26.50906 | 36001 ft | 493 kts | 330° |
| 2026-04-28 15:56 | 44.37295 | 26.46154 | 36001 ft | 492 kts | 330° |
| 2026-04-28 15:56 | 44.43233 | 26.41404 | 36001 ft | 491 kts | 330° |
| 2026-04-28 15:57 | 44.49150 | 26.36659 | 36001 ft | 489 kts | 330° |
| 2026-04-28 15:57 | 44.55002 | 26.31791 | 35995 ft | 488 kts | 325° |
| 2026-04-28 15:58 | 44.60425 | 26.26110 | 36007 ft | 486 kts | 322° |
| 2026-04-28 15:58 | 44.65787 | 26.20330 | 36003 ft | 486 kts | 322° |
| 2026-04-28 15:59 | 44.70257 | 26.15547 | 36002 ft | 486 kts | 322° |
| 2026-04-28 15:59 | 44.76565 | 26.08842 | 36002 ft | 487 kts | 322° |
| 2026-04-28 16:00 | 44.81969 | 26.03102 | 36001 ft | 487 kts | 322° |
| 2026-04-28 16:00 | 44.87376 | 25.97344 | 36002 ft | 487 kts | 322° |
| 2026-04-28 16:01 | 44.92787 | 25.91567 | 36002 ft | 488 kts | 322° |
| 2026-04-28 16:01 | 44.98201 | 25.85770 | 35999 ft | 488 kts | 322° |
| 2026-04-28 16:02 | 45.03613 | 25.79960 | 36003 ft | 488 kts | 322° |
| 2026-04-28 16:02 | 45.09019 | 25.74143 | 35997 ft | 488 kts | 322° |
| 2026-04-28 16:03 | 45.14424 | 25.68314 | 36001 ft | 488 kts | 322° |
| 2026-04-28 16:03 | 45.19823 | 25.62476 | 35999 ft | 488 kts | 322° |
| 2026-04-28 16:04 | 45.25219 | 25.56627 | 36002 ft | 488 kts | 322° |
| 2026-04-28 16:04 | 45.29704 | 25.51756 | 36002 ft | 488 kts | 322° |
| 2026-04-28 16:05 | 45.36003 | 25.44895 | 36002 ft | 488 kts | 322° |
| 2026-04-28 16:05 | 45.41389 | 25.39015 | 36004 ft | 488 kts | 322° |
| 2026-04-28 16:06 | 45.45866 | 25.34116 | 35997 ft | 488 kts | 322° |
| 2026-04-28 16:06 | 45.52125 | 25.27248 | 36000 ft | 488 kts | 322° |
| 2026-04-28 16:07 | 45.56626 | 25.22298 | 36001 ft | 488 kts | 322° |
| 2026-04-28 16:08 | 45.64680 | 25.13414 | 35999 ft | 488 kts | 322° |
| 2026-04-28 16:08 | 45.70043 | 25.07480 | 36005 ft | 487 kts | 322° |
| 2026-04-28 16:09 | 45.78084 | 24.98556 | 36001 ft | 487 kts | 322° |
| 2026-04-28 16:10 | 45.86116 | 24.89607 | 35999 ft | 488 kts | 322° |
| 2026-04-28 16:10 | 45.94145 | 24.80630 | 36002 ft | 488 kts | 322° |
| 2026-04-28 16:11 | 46.04841 | 24.68616 | 36000 ft | 488 kts | 321° |
| 2026-04-28 16:12 | 46.12858 | 24.59571 | 36002 ft | 488 kts | 321° |
| 2026-04-28 16:13 | 46.20869 | 24.50499 | 36002 ft | 488 kts | 321° |
| 2026-04-28 16:14 | 46.32936 | 24.43317 | 34091 ft | 508 kts | 359° |
| 2026-04-28 16:14 | 46.39452 | 24.40165 | 35050 ft | 495 kts | 321° |
| 2026-04-28 16:15 | 46.44118 | 24.33142 | 35696 ft | 486 kts | 317° |
| 2026-04-28 16:15 | 46.46702 | 24.29978 | 35934 ft | 488 kts | 321° |
| 2026-04-28 16:15 | 46.49398 | 24.26989 | 36294 ft | 486 kts | 323° |
| 2026-04-28 16:16 | 46.54783 | 24.21057 | 36907 ft | 485 kts | 322° |
| 2026-04-28 16:16 | 46.57435 | 24.18015 | 37174 ft | 486 kts | 321° |
| 2026-04-28 16:17 | 46.62672 | 24.11798 | 37727 ft | 486 kts | 320° |
| 2026-04-28 16:17 | 46.65272 | 24.08655 | 37916 ft | 487 kts | 320° |
| 2026-04-28 16:17 | 46.70489 | 24.02314 | 37998 ft | 488 kts | 320° |
| 2026-04-28 16:18 | 46.75697 | 23.95979 | 37994 ft | 486 kts | 320° |
| 2026-04-28 16:18 | 46.80871 | 23.89681 | 38001 ft | 484 kts | 320° |
| 2026-04-28 16:19 | 46.86028 | 23.83392 | 38002 ft | 483 kts | 320° |
| 2026-04-28 16:19 | 46.91182 | 23.77091 | 38001 ft | 482 kts | 320° |
| 2026-04-28 16:20 | 46.96330 | 23.70780 | 38006 ft | 483 kts | 320° |
| 2026-04-28 16:20 | 47.01489 | 23.64438 | 38003 ft | 484 kts | 320° |
| 2026-04-28 16:21 | 47.06649 | 23.58078 | 38001 ft | 485 kts | 320° |
| 2026-04-28 16:21 | 47.11821 | 23.51688 | 38002 ft | 486 kts | 319° |
| 2026-04-28 16:22 | 47.16996 | 23.45276 | 38004 ft | 487 kts | 319° |
| 2026-04-28 16:22 | 47.22176 | 23.38842 | 38000 ft | 487 kts | 319° |
| 2026-04-28 16:23 | 47.27352 | 23.32395 | 38000 ft | 488 kts | 319° |
| 2026-04-28 16:23 | 47.32526 | 23.25935 | 38000 ft | 487 kts | 319° |
| 2026-04-28 16:24 | 47.37690 | 23.19469 | 38001 ft | 487 kts | 319° |
| 2026-04-28 16:24 | 47.42848 | 23.12993 | 38000 ft | 487 kts | 319° |
| 2026-04-28 16:25 | 47.48000 | 23.06507 | 38001 ft | 486 kts | 319° |
| 2026-04-28 16:25 | 47.53142 | 23.00018 | 38002 ft | 486 kts | 319° |
| 2026-04-28 16:26 | 47.58277 | 22.93518 | 38000 ft | 486 kts | 319° |
| 2026-04-28 16:26 | 47.63412 | 22.87003 | 38001 ft | 486 kts | 319° |
| 2026-04-28 16:27 | 47.68534 | 22.80486 | 38002 ft | 485 kts | 319° |
| 2026-04-28 16:28 | 47.76217 | 22.70678 | 38001 ft | 485 kts | 319° |
| 2026-04-28 16:28 | 47.81334 | 22.64123 | 38001 ft | 486 kts | 319° |
| 2026-04-28 16:29 | 47.89005 | 22.54263 | 38002 ft | 486 kts | 319° |
| 2026-04-28 16:30 | 47.96672 | 22.44368 | 38002 ft | 486 kts | 319° |
| 2026-04-28 16:30 | 48.01752 | 22.37790 | 38001 ft | 486 kts | 319° |
| 2026-04-28 16:31 | 48.06858 | 22.31159 | 38001 ft | 486 kts | 319° |
| 2026-04-28 16:31 | 48.11962 | 22.24514 | 38002 ft | 486 kts | 319° |
| 2026-04-28 16:32 | 48.17057 | 22.17862 | 38001 ft | 486 kts | 319° |
| 2026-04-28 16:32 | 48.24699 | 22.07850 | 38002 ft | 486 kts | 318° |
| 2026-04-28 16:33 | 48.28965 | 22.02242 | 38001 ft | 486 kts | 318° |
| 2026-04-28 16:33 | 48.34881 | 21.94461 | 38002 ft | 486 kts | 319° |
| 2026-04-28 16:34 | 48.40411 | 21.88637 | 38007 ft | 486 kts | 328° |
| 2026-04-28 16:34 | 48.46212 | 21.83394 | 38002 ft | 486 kts | 328° |
| 2026-04-28 16:35 | 48.52001 | 21.78108 | 38003 ft | 486 kts | 328° |
| 2026-04-28 16:35 | 48.57774 | 21.72766 | 38000 ft | 487 kts | 328° |
| 2026-04-28 16:36 | 48.63537 | 21.67399 | 38002 ft | 487 kts | 328° |
| 2026-04-28 16:36 | 48.69295 | 21.62022 | 38001 ft | 487 kts | 328° |
| 2026-04-28 16:37 | 48.75062 | 21.56625 | 38003 ft | 487 kts | 328° |
| 2026-04-28 16:38 | 48.83702 | 21.48513 | 38002 ft | 487 kts | 328° |
| 2026-04-28 16:38 | 48.89462 | 21.43087 | 37999 ft | 487 kts | 328° |
| 2026-04-28 16:39 | 48.95222 | 21.37646 | 38001 ft | 487 kts | 328° |
| 2026-04-28 16:39 | 49.00977 | 21.32195 | 38000 ft | 487 kts | 328° |
| 2026-04-28 16:40 | 49.06724 | 21.26736 | 38002 ft | 487 kts | 328° |
| 2026-04-28 16:40 | 49.12465 | 21.21266 | 38001 ft | 487 kts | 328° |
| 2026-04-28 16:41 | 49.18208 | 21.15781 | 38001 ft | 486 kts | 327° |
| 2026-04-28 16:41 | 49.23945 | 21.10285 | 38002 ft | 487 kts | 327° |
| 2026-04-28 16:42 | 49.29680 | 21.04778 | 38000 ft | 486 kts | 327° |
| 2026-04-28 16:42 | 49.35597 | 20.99760 | 37998 ft | 487 kts | 337° |
| 2026-04-28 16:43 | 49.41950 | 20.96175 | 38009 ft | 486 kts | 340° |
| 2026-04-28 16:43 | 49.48327 | 20.92665 | 38001 ft | 487 kts | 340° |
| 2026-04-28 16:44 | 49.54696 | 20.89091 | 38003 ft | 487 kts | 339° |
| 2026-04-28 16:44 | 49.61056 | 20.85478 | 38003 ft | 487 kts | 339° |
| 2026-04-28 16:45 | 49.67416 | 20.81848 | 38000 ft | 488 kts | 339° |
| 2026-04-28 16:45 | 49.73778 | 20.78210 | 38002 ft | 488 kts | 339° |
| 2026-04-28 16:46 | 49.80144 | 20.74562 | 38000 ft | 488 kts | 339° |
| 2026-04-28 16:46 | 49.86506 | 20.70906 | 38001 ft | 488 kts | 339° |
| 2026-04-28 16:47 | 49.91788 | 20.67863 | 38001 ft | 488 kts | 339° |
| 2026-04-28 16:47 | 49.98145 | 20.64190 | 38001 ft | 487 kts | 339° |
| 2026-04-28 16:48 | 50.04509 | 20.60504 | 38001 ft | 487 kts | 339° |
| 2026-04-28 16:48 | 50.10859 | 20.56815 | 38001 ft | 487 kts | 339° |
| 2026-04-28 16:49 | 50.17177 | 20.53134 | 38002 ft | 487 kts | 339° |
| 2026-04-28 16:49 | 50.23526 | 20.49424 | 38001 ft | 487 kts | 339° |
| 2026-04-28 16:50 | 50.29875 | 20.45704 | 38001 ft | 487 kts | 339° |
| 2026-04-28 16:50 | 50.36222 | 20.41975 | 38002 ft | 487 kts | 339° |
| 2026-04-28 16:51 | 50.42568 | 20.38235 | 38001 ft | 487 kts | 339° |
| 2026-04-28 16:51 | 50.48913 | 20.34484 | 38001 ft | 487 kts | 339° |
| 2026-04-28 16:52 | 50.55258 | 20.30724 | 38002 ft | 487 kts | 339° |
| 2026-04-28 16:52 | 50.61599 | 20.26952 | 38001 ft | 487 kts | 339° |
| 2026-04-28 16:53 | 50.67978 | 20.23341 | 37998 ft | 487 kts | 342° |
| 2026-04-28 16:53 | 50.74457 | 20.20154 | 38003 ft | 487 kts | 342° |
| 2026-04-28 16:54 | 50.80930 | 20.16952 | 38001 ft | 487 kts | 342° |
| 2026-04-28 16:54 | 50.87394 | 20.13749 | 37990 ft | 485 kts | 346° |
| 2026-04-28 16:54 | 50.90734 | 20.13114 | 38001 ft | 485 kts | 2° |
| 2026-04-28 16:55 | 50.94071 | 20.13801 | 38010 ft | 485 kts | 14° |
| 2026-04-28 16:55 | 50.97230 | 20.15636 | 37992 ft | 483 kts | 26° |
| 2026-04-28 16:55 | 51.00230 | 20.18054 | 38014 ft | 484 kts | 27° |
| 2026-04-28 16:56 | 51.06272 | 20.22861 | 38007 ft | 488 kts | 26° |
| 2026-04-28 16:56 | 51.12391 | 20.27625 | 38005 ft | 491 kts | 26° |
| 2026-04-28 16:57 | 51.18546 | 20.32378 | 38002 ft | 493 kts | 26° |
| 2026-04-28 16:57 | 51.24724 | 20.37155 | 38001 ft | 493 kts | 26° |
| 2026-04-28 16:58 | 51.30894 | 20.41943 | 38000 ft | 493 kts | 26° |
| 2026-04-28 16:58 | 51.37013 | 20.46710 | 37999 ft | 491 kts | 26° |
| 2026-04-28 16:59 | 51.43148 | 20.51504 | 38000 ft | 490 kts | 26° |
| 2026-04-28 16:59 | 51.49268 | 20.56300 | 38000 ft | 489 kts | 26° |
| 2026-04-28 17:00 | 51.55372 | 20.61098 | 38000 ft | 488 kts | 26° |
| 2026-04-28 17:00 | 51.61463 | 20.65901 | 38001 ft | 487 kts | 26° |
| 2026-04-28 17:01 | 51.67549 | 20.70714 | 38001 ft | 487 kts | 26° |
| 2026-04-28 17:01 | 51.73639 | 20.75544 | 38002 ft | 487 kts | 26° |
| 2026-04-28 17:02 | 51.79722 | 20.80384 | 38002 ft | 488 kts | 26° |
| 2026-04-28 17:02 | 51.85810 | 20.85243 | 38002 ft | 488 kts | 26° |
| 2026-04-28 17:03 | 51.94950 | 20.92565 | 38002 ft | 489 kts | 26° |
| 2026-04-28 17:03 | 52.01050 | 20.97471 | 38002 ft | 489 kts | 26° |
| 2026-04-28 17:04 | 52.10197 | 21.04854 | 38001 ft | 489 kts | 26° |
| 2026-04-28 17:05 | 52.19348 | 21.12275 | 38001 ft | 490 kts | 26° |
| 2026-04-28 17:06 | 52.28490 | 21.19724 | 38001 ft | 490 kts | 26° |
| 2026-04-28 17:06 | 52.37626 | 21.27202 | 38001 ft | 489 kts | 26° |
| 2026-04-28 17:07 | 52.43711 | 21.32203 | 38001 ft | 489 kts | 26° |
| 2026-04-28 17:07 | 52.49792 | 21.37216 | 38001 ft | 489 kts | 26° |
| 2026-04-28 17:08 | 52.55858 | 21.42283 | 38001 ft | 489 kts | 28° |
| 2026-04-28 17:08 | 52.61841 | 21.47620 | 38002 ft | 489 kts | 28° |
| 2026-04-28 17:09 | 52.67808 | 21.53036 | 38001 ft | 489 kts | 28° |
| 2026-04-28 17:09 | 52.73772 | 21.58429 | 38001 ft | 489 kts | 28° |
| 2026-04-28 17:10 | 52.79737 | 21.63810 | 38001 ft | 489 kts | 28° |
| 2026-04-28 17:10 | 52.85713 | 21.69210 | 38001 ft | 489 kts | 28° |
| 2026-04-28 17:11 | 52.91687 | 21.74626 | 38001 ft | 489 kts | 28° |
| 2026-04-28 17:11 | 52.97655 | 21.80055 | 38001 ft | 489 kts | 28° |
| 2026-04-28 17:12 | 53.03625 | 21.85506 | 38001 ft | 489 kts | 28° |
| 2026-04-28 17:12 | 53.09589 | 21.90967 | 38001 ft | 489 kts | 28° |
| 2026-04-28 17:13 | 53.15547 | 21.96440 | 38001 ft | 489 kts | 29° |
| 2026-04-28 17:13 | 53.21504 | 22.01930 | 38001 ft | 489 kts | 29° |
| 2026-04-28 17:14 | 53.27424 | 22.07403 | 38001 ft | 489 kts | 29° |
| 2026-04-28 17:14 | 53.33379 | 22.12926 | 38001 ft | 489 kts | 29° |
| 2026-04-28 17:15 | 53.39330 | 22.18463 | 38001 ft | 489 kts | 29° |
| 2026-04-28 17:15 | 53.45315 | 22.24051 | 38001 ft | 489 kts | 29° |
| 2026-04-28 17:16 | 53.51219 | 22.29580 | 38001 ft | 489 kts | 29° |
| 2026-04-28 17:16 | 53.57243 | 22.35240 | 38012 ft | 497 kts | 29° |
| 2026-04-28 17:17 | 53.63320 | 22.40969 | 38010 ft | 504 kts | 29° |
| 2026-04-28 17:17 | 53.69431 | 22.46748 | 38010 ft | 509 kts | 29° |
| 2026-04-28 17:18 | 53.75674 | 22.52673 | 38008 ft | 513 kts | 29° |
| 2026-04-28 17:18 | 53.81912 | 22.58614 | 38003 ft | 515 kts | 29° |
| 2026-04-28 17:19 | 53.88166 | 22.64591 | 38000 ft | 516 kts | 29° |
| 2026-04-28 17:19 | 53.94379 | 22.70550 | 38000 ft | 516 kts | 29° |
| 2026-04-28 17:20 | 53.99614 | 22.75586 | 38000 ft | 515 kts | 29° |
| 2026-04-28 17:20 | 54.06846 | 22.82568 | 38000 ft | 514 kts | 30° |
| 2026-04-28 17:21 | 54.13056 | 22.88586 | 38000 ft | 513 kts | 30° |
| 2026-04-28 17:22 | 54.22338 | 22.97620 | 38001 ft | 511 kts | 30° |
| 2026-04-28 17:22 | 54.28573 | 23.03435 | 37995 ft | 510 kts | 24° |
| 2026-04-28 17:23 | 54.35257 | 23.07442 | 38004 ft | 509 kts | 13° |
| 2026-04-28 17:23 | 54.38734 | 23.08662 | 38005 ft | 509 kts | 10° |
| 2026-04-28 17:23 | 54.45706 | 23.10806 | 38003 ft | 509 kts | 10° |
| 2026-04-28 17:24 | 54.52678 | 23.12972 | 37998 ft | 507 kts | 10° |
| 2026-04-28 17:24 | 54.59480 | 23.15155 | 37984 ft | 489 kts | 10° |
| 2026-04-28 17:25 | 54.69494 | 23.18425 | 38005 ft | 488 kts | 10° |
| 2026-04-28 17:26 | 54.76179 | 23.20615 | 38003 ft | 489 kts | 10° |
| 2026-04-28 17:26 | 54.79125 | 23.21582 | 38002 ft | 489 kts | 11° |
| 2026-04-28 17:33 | 54.84518 | 23.23355 | 38002 ft | 489 kts | 11° |
| 2026-04-28 17:33 | 54.90086 | 23.25190 | 38002 ft | 490 kts | 11° |
| 2026-04-28 17:34 | 54.97884 | 23.27768 | 37589 ft | 496 kts | 11° |
| 2026-04-28 17:34 | 55.01306 | 23.28903 | 36894 ft | 500 kts | 11° |
| 2026-04-28 17:34 | 55.04717 | 23.30035 | 36059 ft | 500 kts | 11° |
| 2026-04-28 17:35 | 55.08132 | 23.31172 | 35223 ft | 499 kts | 11° |
| 2026-04-28 17:35 | 55.11542 | 23.32308 | 34313 ft | 500 kts | 11° |
| 2026-04-28 17:35 | 55.14963 | 23.33451 | 33368 ft | 501 kts | 11° |
| 2026-04-28 17:35 | 55.18384 | 23.34595 | 32393 ft | 502 kts | 11° |
| 2026-04-28 17:36 | 55.21818 | 23.35746 | 31370 ft | 503 kts | 11° |
| 2026-04-28 17:36 | 55.25258 | 23.36901 | 30407 ft | 503 kts | 11° |
| 2026-04-28 17:36 | 55.28673 | 23.38050 | 29712 ft | 496 kts | 11° |
| 2026-04-28 17:36 | 55.32046 | 23.39186 | 28997 ft | 491 kts | 11° |
| 2026-04-28 17:37 | 55.35382 | 23.40313 | 28298 ft | 485 kts | 11° |
| 2026-04-28 17:37 | 55.38684 | 23.41429 | 27613 ft | 480 kts | 11° |
| 2026-04-28 17:37 | 55.41946 | 23.42534 | 26936 ft | 475 kts | 11° |
| 2026-04-28 17:37 | 55.45182 | 23.43632 | 26274 ft | 471 kts | 11° |
| 2026-04-28 17:38 | 55.48387 | 23.44721 | 25607 ft | 466 kts | 11° |
| 2026-04-28 17:38 | 55.51557 | 23.45800 | 24955 ft | 461 kts | 11° |
| 2026-04-28 17:38 | 55.54693 | 23.46869 | 24299 ft | 457 kts | 11° |
| 2026-04-28 17:38 | 55.57800 | 23.47930 | 23664 ft | 453 kts | 11° |
| 2026-04-28 17:39 | 55.60878 | 23.48982 | 23030 ft | 448 kts | 11° |
| 2026-04-28 17:39 | 55.63931 | 23.50028 | 22400 ft | 444 kts | 11° |
| 2026-04-28 17:39 | 55.69949 | 23.52094 | 21143 ft | 436 kts | 11° |
| 2026-04-28 17:40 | 55.72917 | 23.53116 | 20535 ft | 433 kts | 11° |
| 2026-04-28 17:40 | 55.75857 | 23.54129 | 19924 ft | 429 kts | 11° |
| 2026-04-28 17:40 | 55.78774 | 23.55136 | 19316 ft | 425 kts | 11° |
| 2026-04-28 17:40 | 55.81665 | 23.56136 | 18718 ft | 422 kts | 11° |
| 2026-04-28 17:41 | 55.84539 | 23.57130 | 18115 ft | 418 kts | 11° |
| 2026-04-28 17:41 | 55.87379 | 23.58115 | 17524 ft | 415 kts | 11° |
| 2026-04-28 17:41 | 55.90198 | 23.59094 | 16924 ft | 411 kts | 11° |
| 2026-04-28 17:41 | 55.92991 | 23.60066 | 16337 ft | 408 kts | 11° |
| 2026-04-28 17:42 | 55.95767 | 23.61032 | 15749 ft | 404 kts | 11° |
| 2026-04-28 17:42 | 55.97589 | 23.61668 | 15363 ft | 402 kts | 11° |
| 2026-04-28 17:42 | 56.01248 | 23.62946 | 14588 ft | 398 kts | 11° |
| 2026-04-28 17:42 | 56.03956 | 23.63893 | 14006 ft | 395 kts | 11° |
| 2026-04-28 17:43 | 56.06643 | 23.64834 | 13425 ft | 392 kts | 11° |
| 2026-04-28 17:43 | 56.09305 | 23.65768 | 12917 ft | 387 kts | 11° |
| 2026-04-28 17:43 | 56.11946 | 23.66696 | 12315 ft | 385 kts | 11° |
| 2026-04-28 17:43 | 56.14566 | 23.67618 | 11744 ft | 383 kts | 11° |
| 2026-04-28 17:44 | 56.17138 | 23.68524 | 11184 ft | 380 kts | 11° |
| 2026-04-28 17:44 | 56.19709 | 23.69431 | 10851 ft | 371 kts | 11° |
| 2026-04-28 17:44 | 56.22195 | 23.70310 | 10700 ft | 358 kts | 11° |
| 2026-04-28 17:44 | 56.24626 | 23.71170 | 10548 ft | 345 kts | 11° |
| 2026-04-28 17:45 | 56.26912 | 23.71980 | 10411 ft | 334 kts | 11° |
| 2026-04-28 17:45 | 56.29152 | 23.72775 | 10276 ft | 323 kts | 11° |
| 2026-04-28 17:45 | 56.31326 | 23.73546 | 10136 ft | 313 kts | 11° |
| 2026-04-28 17:45 | 56.33424 | 23.74291 | 10018 ft | 303 kts | 11° |
| 2026-04-28 17:46 | 56.35472 | 23.75020 | 9800 ft | 297 kts | 11° |
| 2026-04-28 17:46 | 56.37498 | 23.75755 | 9406 ft | 297 kts | 12° |
| 2026-04-28 17:46 | 56.39499 | 23.76697 | 9029 ft | 297 kts | 15° |
| 2026-04-28 17:46 | 56.41481 | 23.77739 | 8704 ft | 296 kts | 16° |
| 2026-04-28 17:47 | 56.43438 | 23.78771 | 8496 ft | 289 kts | 16° |
| 2026-04-28 17:47 | 56.45346 | 23.79765 | 8252 ft | 279 kts | 15° |
| 2026-04-28 17:47 | 56.47206 | 23.80721 | 7879 ft | 277 kts | 15° |
| 2026-04-28 17:47 | 56.48432 | 23.81348 | 7673 ft | 276 kts | 15° |
| 2026-04-28 17:48 | 56.50923 | 23.82619 | 7137 ft | 279 kts | 15° |
| 2026-04-28 17:48 | 56.52800 | 23.83577 | 6754 ft | 281 kts | 15° |
| 2026-04-28 17:48 | 56.54688 | 23.84562 | 6333 ft | 284 kts | 16° |
| 2026-04-28 17:48 | 56.56594 | 23.85573 | 5885 ft | 287 kts | 16° |
| 2026-04-28 17:49 | 56.58515 | 23.86595 | 5437 ft | 289 kts | 16° |
| 2026-04-28 17:49 | 56.60441 | 23.87619 | 4985 ft | 284 kts | 16° |
| 2026-04-28 17:49 | 56.62284 | 23.88600 | 4563 ft | 267 kts | 16° |
| 2026-04-28 17:49 | 56.64011 | 23.89520 | 4152 ft | 252 kts | 16° |
| 2026-04-28 17:50 | 56.65648 | 23.90391 | 3807 ft | 237 kts | 16° |
| 2026-04-28 17:50 | 56.67164 | 23.91199 | 3463 ft | 223 kts | 16° |
| 2026-04-28 17:50 | 56.68623 | 23.91976 | 3057 ft | 214 kts | 16° |
| 2026-04-28 17:50 | 56.70041 | 23.92733 | 2691 ft | 212 kts | 16° |
| 2026-04-28 17:51 | 56.71425 | 23.93471 | 2565 ft | 199 kts | 16° |
| 2026-04-28 17:51 | 56.72726 | 23.93982 | 2501 ft | 185 kts | 5° |
| 2026-04-28 17:51 | 56.73991 | 23.94171 | 2498 ft | 179 kts | 4° |
| 2026-04-28 17:51 | 56.75226 | 23.94347 | 2494 ft | 178 kts | 4° |
| 2026-04-28 17:52 | 56.76464 | 23.94534 | 2503 ft | 180 kts | 4° |
| 2026-04-28 17:52 | 56.77714 | 23.94729 | 2508 ft | 182 kts | 4° |
| 2026-04-28 17:52 | 56.80214 | 23.95133 | 2395 ft | 169 kts | 4° |
| 2026-04-28 17:53 | 56.81332 | 23.95313 | 2184 ft | 159 kts | 4° |
| 2026-04-28 17:53 | 56.82413 | 23.95488 | 1767 ft | 153 kts | 4° |
| 2026-04-28 17:53 | 56.83469 | 23.95659 | 1298 ft | 148 kts | 4° |
| 2026-04-28 17:53 | 56.84526 | 23.95830 | 1153 ft | 155 kts | 4° |
| 2026-04-28 17:54 | 56.85592 | 23.96004 | 1098 ft | 151 kts | 4° |
| 2026-04-28 17:54 | 56.86633 | 23.96174 | 1092 ft | 151 kts | 4° |
| 2026-04-28 17:54 | 56.87700 | 23.96374 | 752 ft | 154 kts | 6° |
| 2026-04-28 17:54 | 56.88735 | 23.96503 | 524 ft | 145 kts | 4° |
| 2026-04-28 17:55 | 56.89743 | 23.96686 | 246 ft | 144 kts | 5° |
| 2026-04-28 17:55 | 56.90734 | 23.96848 | 61 ft | 144 kts | 5° |
| 2026-04-28 17:55 | 56.91664 | 23.97007 | 42 ft | 112 kts | 5° |
| 2026-04-28 17:55 | 56.92232 | 23.97100 | 42 ft | 51 kts | 6° |
| 2026-04-28 17:56 | 56.92505 | 23.97306 | 40 ft | 20 kts | 36° |
| 2026-04-28 17:56 | 56.92606 | 23.97459 | 40 ft | 11 kts | 57° |
| 2026-04-28 17:56 | 56.92607 | 23.97608 | 40 ft | 12 kts | 95° |
| 2026-04-28 17:56 | 56.92599 | 23.97760 | 40 ft | 12 kts | 96° |
| 2026-04-28 17:57 | 56.92577 | 23.97815 | 40 ft | 3 kts | 160° |
| 2026-04-28 17:57 | 56.92565 | 23.97814 | 40 ft | 1 kts | 185° |
| 2026-04-28 17:57 | 56.92554 | 23.97809 | 40 ft | 0 kts | 190° |